createdAt,value
2018-12-27T15:56:54.082Z,101764.83
2018-12-27T16:01:57.513Z,101774.14
2018-12-27T16:07:01.895Z,101769.31
2018-12-27T16:12:05.673Z,101767.88
2018-12-27T16:17:09.122Z,101772.30
2018-12-27T16:22:12.809Z,101762.98
2018-12-27T16:27:16.243Z,101763.33
2018-12-27T16:32:19.687Z,101743.92
2018-12-27T16:37:23.121Z,101751.84
2018-12-27T16:42:26.564Z,101762.73
2018-12-27T16:47:29.994Z,101769.86
2018-12-27T16:52:33.503Z,101755.78
2018-12-27T16:57:36.959Z,101742.96
2018-12-27T17:02:40.408Z,101754.41
2018-12-27T17:07:43.838Z,101755.70
2018-12-27T17:12:47.287Z,101735.23
2018-12-27T17:17:50.726Z,101755.19
2018-12-27T17:22:54.183Z,101758.73
2018-12-27T17:27:57.606Z,101770.00
2018-12-27T17:33:01.043Z,101756.94
2018-12-27T17:38:04.513Z,101767.52
2018-12-27T17:43:07.956Z,101769.17
2018-12-27T17:48:11.413Z,101782.41
2018-12-27T17:53:14.853Z,101777.72
2018-12-27T17:58:18.296Z,101788.48
2018-12-27T18:03:21.817Z,101790.69
2018-12-27T18:08:25.259Z,101792.11
2018-12-27T18:13:28.690Z,101784.27
2018-12-27T18:18:32.132Z,101794.96
2018-12-27T18:23:35.571Z,101787.39
2018-12-27T18:28:39.017Z,101784.53
2018-12-27T18:33:42.458Z,101767.67
2018-12-27T18:38:45.924Z,101758.98
2018-12-27T18:43:49.353Z,101755.70
2018-12-27T18:48:52.798Z,101755.45
2018-12-27T18:53:56.284Z,101756.02
2018-12-27T18:58:59.729Z,101756.20
2018-12-27T19:04:03.158Z,101747.06
2018-12-27T19:09:07.471Z,101751.12
2018-12-27T19:14:10.915Z,101760.17
2018-12-27T19:19:14.356Z,101764.80
2018-12-27T19:24:17.803Z,101754.16
2018-12-27T19:29:21.234Z,101753.95
2018-12-27T19:34:24.667Z,101755.76
2018-12-27T19:39:28.118Z,101747.89
2018-12-27T19:44:31.553Z,101748.30
2018-12-27T19:49:34.980Z,101750.30
2018-12-27T19:54:38.459Z,101761.41
2018-12-27T19:59:41.898Z,101755.08
2018-12-27T20:04:45.328Z,101758.98
2018-12-27T20:09:48.782Z,101750.56
2018-12-27T20:14:52.230Z,101750.31
2018-12-27T20:19:55.665Z,101739.50
2018-12-27T20:24:59.176Z,101742.44
2018-12-27T20:30:02.618Z,101745.94
2018-12-27T20:35:06.059Z,101755.59
2018-12-27T20:40:09.494Z,101747.88
2018-12-27T20:45:12.941Z,101752.45
2018-12-27T20:50:16.476Z,101757.24
2018-12-27T20:55:19.919Z,101768.09
2018-12-27T21:00:23.481Z,101765.94
2018-12-27T21:05:26.971Z,101773.65
2018-12-27T21:10:30.469Z,101782.95
2018-12-27T21:15:33.889Z,101779.81
2018-12-27T21:20:37.707Z,101788.98
2018-12-27T21:25:41.652Z,101787.84
2018-12-27T21:30:45.109Z,101786.80
2018-12-27T21:35:48.550Z,101800.53
2018-12-27T21:40:52.099Z,101795.19
2018-12-27T21:45:55.538Z,101795.13
2018-12-27T21:50:58.985Z,101790.72
2018-12-27T21:56:02.432Z,101790.48
2018-12-27T22:01:05.880Z,101786.95
2018-12-27T22:06:09.320Z,101787.83
2018-12-27T22:11:12.802Z,101794.16
2018-12-27T22:16:16.652Z,101796.01
2018-12-27T22:21:20.109Z,101786.60
2018-12-27T22:26:23.598Z,101772.03
2018-12-27T22:31:27.084Z,101775.48
2018-12-27T22:36:30.532Z,101763.94
2018-12-27T22:41:37.463Z,101759.05
2018-12-27T22:46:40.904Z,101747.77
2018-12-27T22:51:44.343Z,101748.67
2018-12-27T22:56:47.775Z,101759.33
2018-12-27T23:01:51.288Z,101762.02
2018-12-27T23:06:54.712Z,101762.98
2018-12-27T23:11:58.140Z,101764.80
2018-12-27T23:17:01.567Z,101768.23
2018-12-27T23:22:05.014Z,101779.27
2018-12-27T23:27:08.446Z,101765.28
2018-12-27T23:32:11.898Z,101767.45
2018-12-27T23:37:15.350Z,101754.27
2018-12-27T23:42:18.783Z,101745.27
2018-12-27T23:47:22.227Z,101728.98
2018-12-27T23:52:25.664Z,101729.52
2018-12-27T23:57:29.091Z,101729.36
